Time;durP1;ratioP1;P1;durP2;ratioP2;P2;SDS_P1;SDS_P2;PMS_P1;PMS_P2;Temp;Humidity;BMP_temperature;BMP_pressure;BME280_temperature;BME280_humidity;BME280_pressure;Samples;Min_cycle;Max_cycle;Signal;HPM_P1;HPM_P2
2022/11/28 00:01:15;;;;;;;9.40;8.50;;;8.00;79.50;;;;;;5097146;28;20407;-47
2022/11/28 00:03:41;;;;;;;8.87;7.97;;;8.00;79.50;;;;;;5097042;28;20187;-45
2022/11/28 00:06:06;;;;;;;10.73;9.47;;;8.00;79.60;;;;;;5098689;28;20415;-46
2022/11/28 00:08:33;;;;;;;10.20;8.87;;;7.90;79.40;;;;;;5098969;28;20279;-45
2022/11/28 00:11:05;;;;;;;9.53;8.63;;;7.90;79.40;;;;;;5098172;28;20426;-45
2022/11/28 00:13:31;;;;;;;9.90;8.90;;;7.90;79.50;;;;;;5098469;28;20711;-44
2022/11/28 00:15:59;;;;;;;10.50;9.50;;;7.90;79.40;;;;;;5097923;28;20412;-44
2022/11/28 00:18:24;;;;;;;10.93;9.83;;;7.90;79.40;;;;;;5097670;28;20497;-47
2022/11/28 00:20:50;;;;;;;11.10;9.93;;;7.90;79.40;;;;;;5098707;28;20414;-46
2022/11/28 00:23:15;;;;;;;14.07;12.50;;;7.90;79.50;;;;;;5098501;28;20183;-44
2022/11/28 00:25:41;;;;;;;12.93;11.63;;;7.90;79.60;;;;;;5098057;28;20628;-44
2022/11/28 00:28:07;;;;;;;13.07;11.67;;;7.90;79.60;;;;;;5097594;28;20504;-44
2022/11/28 00:30:36;;;;;;;13.50;12.13;;;7.90;79.70;;;;;;5097980;28;20172;-44
2022/11/28 00:33:02;;;;;;;12.23;11.03;;;7.90;79.90;;;;;;5097771;28;20245;-44
2022/11/28 00:35:28;;;;;;;11.67;10.43;;;7.90;79.90;;;;;;5098233;28;20512;-48
2022/11/28 00:37:53;;;;;;;13.13;11.67;;;7.90;80.00;;;;;;5098089;28;20185;-46
2022/11/28 00:40:19;;;;;;;11.53;10.40;;;7.90;80.10;;;;;;5098917;28;20219;-45
2022/11/28 00:42:44;;;;;;;11.17;10.17;;;7.90;80.20;;;;;;5096851;28;20181;-45
2022/11/28 00:45:10;;;;;;;11.80;10.60;;;7.90;80.20;;;;;;5097330;28;20235;-46
2022/11/28 00:47:36;;;;;;;11.27;10.10;;;7.80;80.80;;;;;;5097101;28;20188;-44
2022/11/28 00:50:01;;;;;;;11.00;9.83;;;7.80;80.10;;;;;;5097677;28;20177;-47
2022/11/28 00:52:27;;;;;;;12.23;10.93;;;7.80;80.10;;;;;;5096606;28;20207;-45
2022/11/28 00:54:53;;;;;;;10.83;9.80;;;7.80;80.20;;;;;;5098355;28;20176;-45
2022/11/28 00:57:18;;;;;;;10.83;9.77;;;7.80;80.40;;;;;;5097738;28;20293;-44
2022/11/28 00:59:45;;;;;;;11.27;10.17;;;7.90;80.60;;;;;;5096146;28;20231;-44
2022/11/28 01:02:11;;;;;;;10.33;9.33;;;7.80;80.60;;;;;;5096222;28;20491;-44
2022/11/28 01:04:37;;;;;;;11.50;9.70;;;7.80;80.70;;;;;;5095609;28;20572;-44
2022/11/28 01:07:02;;;;;;;10.70;9.70;;;7.80;80.80;;;;;;5095808;28;20178;-45
2022/11/28 01:09:28;;;;;;;11.23;10.13;;;7.80;80.90;;;;;;5094521;28;20508;-45
2022/11/28 01:11:54;;;;;;;10.57;9.47;;;7.80;81.00;;;;;;5095251;28;20176;-44
2022/11/28 01:14:22;;;;;;;9.67;8.77;;;7.80;81.10;;;;;;5094724;28;20425;-45
2022/11/28 01:16:47;;;;;;;11.67;9.53;;;7.80;81.30;;;;;;5093923;28;20289;-44
2022/11/28 01:19:14;;;;;;;10.47;9.40;;;7.80;81.40;;;;;;5095197;28;20817;-45
2022/11/28 01:21:39;;;;;;;12.10;10.80;;;7.80;81.60;;;;;;5096562;28;20235;-43
2022/11/28 01:24:05;;;;;;;10.80;9.30;;;7.70;81.50;;;;;;5096396;28;20426;-44
2022/11/28 01:26:31;;;;;;;10.47;9.47;;;7.80;81.70;;;;;;5095890;28;20410;-43
2022/11/28 01:28:58;;;;;;;9.53;8.57;;;7.80;81.70;;;;;;5096515;28;20615;-46
2022/11/28 01:31:26;;;;;;;11.07;9.23;;;7.70;81.60;;;;;;5096682;28;20276;-44
2022/11/28 01:33:52;;;;;;;11.03;9.93;;;7.70;81.50;;;;;;5097133;28;20430;-45
2022/11/28 01:36:18;;;;;;;10.37;8.70;;;7.70;81.50;;;;;;5096033;28;20422;-45
2022/11/28 01:38:44;;;;;;;9.60;8.70;;;7.70;81.60;;;;;;5096974;28;20474;-47
2022/11/28 01:41:10;;;;;;;9.13;7.90;;;7.70;81.60;;;;;;5095820;28;20410;-43
2022/11/28 01:43:36;;;;;;;9.40;8.07;;;7.70;81.60;;;;;;5100115;28;20546;-42
2022/11/28 01:46:03;;;;;;;9.23;8.33;;;7.70;81.60;;;;;;5101029;28;20775;-44
2022/11/28 01:48:33;;;;;;;8.90;8.00;;;7.70;81.50;;;;;;5098932;28;20542;-44
2022/11/28 01:51:01;;;;;;;9.00;8.10;;;7.70;81.50;;;;;;5099317;28;20415;-44
2022/11/28 01:53:30;;;;;;;9.83;8.00;;;7.70;81.60;;;;;;5099787;28;20524;-44
2022/11/28 01:56:02;;;;;;;8.97;7.90;;;7.70;81.50;;;;;;5100735;28;20492;-43
2022/11/28 01:58:30;;;;;;;10.00;9.00;;;7.60;81.50;;;;;;5100062;28;20573;-43
2022/11/28 02:00:56;;;;;;;12.13;8.17;;;7.60;81.50;;;;;;5099573;28;20497;-45
2022/11/28 02:03:28;;;;;;;7.87;7.07;;;7.60;81.50;;;;;;5100636;28;20859;-44
2022/11/28 02:05:55;;;;;;;8.77;7.10;;;7.60;81.40;;;;;;5100430;28;20514;-43
2022/11/28 02:08:21;;;;;;;8.80;8.00;;;7.60;81.30;;;;;;5099562;28;20449;-44
2022/11/28 02:11:02;;;;;;;8.60;7.40;;;7.60;81.30;;;;;;5100668;28;20828;-45
2022/11/28 02:13:33;;;;;;;7.20;6.50;;;7.60;81.20;;;;;;5100903;28;20418;-44
2022/11/28 02:16:10;;;;;;;9.33;7.00;;;7.60;81.20;;;;;;5101246;28;20773;-43
2022/11/28 02:18:58;;;;;;;7.70;7.00;;;7.60;81.10;;;;;;5099437;28;20462;-44
2022/11/28 02:21:45;;;;;;;8.87;7.37;;;7.60;81.80;;;;;;5099891;28;20423;-43
2022/11/28 02:24:28;;;;;;;7.93;7.00;;;7.60;81.10;;;;;;5099575;28;20762;-44
2022/11/28 02:27:20;;;;;;;10.00;7.60;;;7.60;81.10;;;;;;5100932;28;20418;-43
2022/11/28 02:30:39;;;;;;;8.13;7.30;;;7.60;81.20;;;;;;5099961;28;20471;-43
2022/11/28 02:33:18;;;;;;;7.73;6.97;;;7.60;81.30;;;;;;5101048;28;20414;-44
2022/11/28 02:36:12;;;;;;;9.33;7.60;;;7.60;81.30;;;;;;5098886;28;20445;-44
2022/11/28 02:39:01;;;;;;;6.63;6.03;;;7.60;81.40;;;;;;5098192;28;20473;-45
2022/11/28 02:41:44;;;;;;;8.10;7.30;;;7.60;81.40;;;;;;5097652;28;20419;-46
2022/11/28 02:44:18;;;;;;;7.80;7.00;;;7.60;81.30;;;;;;5099539;28;20657;-46
2022/11/28 02:47:06;;;;;;;7.33;6.60;;;7.60;81.30;;;;;;5097421;28;20796;-43
2022/11/28 02:49:41;;;;;;;7.50;6.80;;;7.60;81.20;;;;;;5097822;28;20766;-44
2022/11/28 02:52:16;;;;;;;6.93;6.23;;;7.60;81.10;;;;;;5098873;28;20421;-44
2022/11/28 02:54:43;;;;;;;7.17;6.47;;;7.60;80.90;;;;;;5097985;28;20487;-46
2022/11/28 02:57:09;;;;;;;7.77;6.77;;;7.60;80.80;;;;;;5099372;28;20462;-43
2022/11/28 02:59:38;;;;;;;8.20;7.13;;;7.60;80.70;;;;;;5099818;28;20473;-48
2022/11/28 03:02:27;;;;;;;9.43;7.20;;;7.60;80.60;;;;;;5099904;28;20759;-45
2022/11/28 03:04:53;;;;;;;8.30;7.23;;;7.60;80.60;;;;;;5100294;28;20494;-45
2022/11/28 03:07:38;;;;;;;8.10;7.37;;;7.60;80.60;;;;;;5099291;28;20506;-44
2022/11/28 03:10:48;;;;;;;7.57;6.87;;;7.60;80.60;;;;;;5099095;28;20489;-44
2022/11/28 03:13:24;;;;;;;9.07;8.07;;;7.60;80.50;;;;;;5097858;28;20426;-43
2022/11/28 03:16:22;;;;;;;7.90;7.10;;;7.60;80.40;;;;;;5095409;28;20433;-43
2022/11/28 03:19:03;;;;;;;8.53;7.40;;;7.60;80.30;;;;;;5098428;28;20573;-45
2022/11/28 03:21:29;;;;;;;7.57;6.83;;;7.60;80.30;;;;;;5099792;28;20725;-44
2022/11/28 03:24:00;;;;;;;8.60;7.70;;;7.60;80.20;;;;;;5098692;28;20418;-47
2022/11/28 03:26:35;;;;;;;7.40;6.60;;;7.60;80.20;;;;;;5099689;28;20191;-45
2022/11/28 03:29:06;;;;;;;7.33;6.63;;;7.60;80.20;;;;;;5098078;28;20457;-46
2022/11/28 03:31:46;;;;;;;7.80;7.00;;;7.60;80.20;;;;;;5098823;28;20426;-46
2022/11/28 03:34:15;;;;;;;7.30;6.43;;;7.60;80.10;;;;;;5097618;28;20418;-45
2022/11/28 03:36:48;;;;;;;6.93;6.23;;;7.60;80.10;;;;;;5098960;28;20414;-44
2022/11/28 03:39:19;;;;;;;8.10;7.27;;;7.60;80.20;;;;;;5097983;28;20468;-44
2022/11/28 03:41:51;;;;;;;8.33;7.13;;;7.60;80.30;;;;;;5098702;28;20510;-43
2022/11/28 03:44:28;;;;;;;7.23;6.53;;;7.60;80.40;;;;;;5098410;28;20425;-43
2022/11/28 03:46:56;;;;;;;7.33;6.63;;;7.60;80.50;;;;;;5098391;28;20414;-43
2022/11/28 03:49:32;;;;;;;8.17;7.37;;;7.60;80.60;;;;;;5097846;28;20433;-43
2022/11/28 03:52:02;;;;;;;7.00;5.60;;;7.60;80.70;;;;;;5098546;28;20414;-45
2022/11/28 03:54:36;;;;;;;7.50;6.80;;;7.60;80.80;;;;;;5098626;28;20446;-44
2022/11/28 03:57:32;;;;;;;8.33;7.47;;;7.50;80.70;;;;;;5097848;28;20470;-45
2022/11/28 04:00:03;;;;;;;7.73;6.63;;;7.60;81.00;;;;;;5097680;28;20752;-43
2022/11/28 04:02:35;;;;;;;8.00;7.20;;;7.60;81.10;;;;;;5097413;28;20422;-45
2022/11/28 04:05:15;;;;;;;8.03;7.20;;;7.60;81.30;;;;;;5099167;28;20422;-44
2022/11/28 04:07:58;;;;;;;6.40;5.80;;;7.50;81.30;;;;;;5096311;28;20732;-44
2022/11/28 04:10:37;;;;;;;7.00;6.40;;;7.50;81.40;;;;;;5095245;28;20954;-46
2022/11/28 04:13:19;;;;;;;7.90;7.10;;;7.50;81.60;;;;;;5096667;28;20777;-42
2022/11/28 04:16:02;;;;;;;6.70;5.70;;;7.50;81.70;;;;;;5095393;28;20879;-43
2022/11/28 04:18:54;;;;;;;7.60;6.67;;;7.50;81.90;;;;;;5095906;28;20481;-46
2022/11/28 04:21:22;;;;;;;9.37;7.13;;;7.50;82.00;;;;;;5095828;28;20478;-47
2022/11/28 04:23:48;;;;;;;9.00;7.23;;;7.50;82.10;;;;;;5097585;28;20410;-47
2022/11/28 04:26:17;;;;;;;7.60;6.80;;;7.50;82.30;;;;;;5096916;28;20522;-45
2022/11/28 04:28:45;;;;;;;7.70;6.30;;;7.50;82.30;;;;;;5096505;28;20230;-46
2022/11/28 04:31:11;;;;;;;7.87;7.07;;;7.50;82.30;;;;;;5096024;28;20427;-45
2022/11/28 04:33:39;;;;;;;7.80;7.00;;;7.40;82.10;;;;;;5096799;28;20453;-46
2022/11/28 04:36:06;;;;;;;7.80;6.90;;;7.40;82.10;;;;;;5096063;28;20909;-44
2022/11/28 04:38:32;;;;;;;9.77;7.60;;;7.40;82.10;;;;;;5095445;28;20484;-43
2022/11/28 04:41:19;;;;;;;8.47;7.67;;;7.40;82.00;;;;;;5096818;28;20479;-47
2022/11/28 04:43:52;;;;;;;7.17;6.47;;;7.40;81.80;;;;;;5096479;28;20434;-43
2022/11/28 04:46:23;;;;;;;7.07;6.37;;;7.50;81.70;;;;;;5096736;28;20414;-45
2022/11/28 04:48:49;;;;;;;8.63;6.97;;;7.50;81.40;;;;;;5097941;28;20422;-43
2022/11/28 04:51:35;;;;;;;7.37;6.63;;;7.50;81.10;;;;;;5097848;28;20477;-44
2022/11/28 04:54:14;;;;;;;5.80;5.23;;;7.50;80.70;;;;;;5095517;28;20517;-49
2022/11/28 04:56:59;;;;;;;7.63;5.73;;;7.50;80.40;;;;;;5096096;28;20473;-44
2022/11/28 04:59:26;;;;;;;6.03;5.43;;;7.50;80.10;;;;;;5094009;28;20474;-45
2022/11/28 05:01:53;;;;;;;7.10;6.40;;;7.50;80.00;;;;;;5093596;28;20406;-43
2022/11/28 05:04:18;;;;;;;6.50;5.87;;;7.50;80.00;;;;;;5095064;28;20736;-46
2022/11/28 05:06:44;;;;;;;7.60;6.37;;;7.50;79.90;;;;;;5095081;28;20677;-45
2022/11/28 05:09:11;;;;;;;6.53;6.03;;;7.50;79.80;;;;;;5093153;28;20191;-49
2022/11/28 05:11:37;;;;;;;7.20;6.50;;;7.50;79.60;;;;;;5094785;28;20581;-43
2022/11/28 05:14:03;;;;;;;7.87;6.20;;;7.50;79.50;;;;;;5093460;28;20751;-43
2022/11/28 05:16:28;;;;;;;5.93;5.30;;;7.50;80.10;;;;;;5095271;28;20430;-43
2022/11/28 05:18:54;;;;;;;7.30;5.83;;;7.50;79.20;;;;;;5095333;28;20506;-43
2022/11/28 05:21:20;;;;;;;7.47;5.50;;;7.50;79.00;;;;;;5094875;28;20637;-43
2022/11/28 05:23:46;;;;;;;6.27;5.60;;;7.50;79.00;;;;;;5093326;28;20416;-43
2022/11/28 05:26:18;;;;;;;6.93;5.80;;;7.50;79.00;;;;;;5092235;28;20891;-43
2022/11/28 05:28:45;;;;;;;7.90;6.17;;;7.50;79.10;;;;;;5093773;28;20521;-43
2022/11/28 05:31:11;;;;;;;7.80;5.83;;;7.50;79.10;;;;;;5092206;28;20410;-45
2022/11/28 05:33:37;;;;;;;7.70;6.00;;;7.50;79.10;;;;;;5092695;28;20429;-44
2022/11/28 05:36:10;;;;;;;6.60;5.90;;;7.50;79.20;;;;;;5092825;28;20419;-44
2022/11/28 05:38:36;;;;;;;6.20;5.60;;;7.50;79.20;;;;;;5093604;28;20717;-43
2022/11/28 05:41:03;;;;;;;7.20;6.50;;;7.50;79.20;;;;;;5093557;28;20472;-45
2022/11/28 05:43:29;;;;;;;8.93;5.83;;;7.50;79.20;;;;;;5093983;28;20712;-43
2022/11/28 05:45:55;;;;;;;7.20;6.20;;;7.50;79.30;;;;;;5094379;28;20746;-45
2022/11/28 05:48:21;;;;;;;6.93;6.20;;;7.50;79.30;;;;;;5090051;28;20426;-45
2022/11/28 05:50:49;;;;;;;7.47;6.67;;;7.50;79.40;;;;;;5092220;28;20502;-45
2022/11/28 05:53:16;;;;;;;6.20;5.60;;;7.50;79.40;;;;;;5092028;28;20426;-43
2022/11/28 05:55:41;;;;;;;6.83;5.57;;;7.50;79.40;;;;;;5092286;28;20484;-43
2022/11/28 05:58:07;;;;;;;7.07;5.83;;;7.50;79.40;;;;;;5092870;28;20836;-45
2022/11/28 06:00:32;;;;;;;6.77;5.60;;;7.50;79.40;;;;;;5093152;28;20177;-46
2022/11/28 06:02:58;;;;;;;7.20;5.73;;;7.50;79.40;;;;;;5092300;28;20211;-44
2022/11/28 06:05:25;;;;;;;6.70;6.00;;;7.50;79.40;;;;;;5090533;28;20221;-42
2022/11/28 06:07:50;;;;;;;8.73;5.43;;;7.50;79.20;;;;;;5090868;28;20514;-45
2022/11/28 06:10:18;;;;;;;7.70;6.70;;;7.50;79.10;;;;;;5089828;28;20512;-43
2022/11/28 06:12:44;;;;;;;6.90;5.67;;;7.50;79.20;;;;;;5088152;28;20722;-45
2022/11/28 06:15:10;;;;;;;5.47;4.97;;;7.40;79.10;;;;;;5084936;28;20450;-45
2022/11/28 06:17:35;;;;;;;7.60;5.80;;;7.40;79.30;;;;;;5084702;28;20173;-45
2022/11/28 06:20:01;;;;;;;6.93;5.70;;;7.30;79.30;;;;;;5082808;28;20200;-43
2022/11/28 06:22:27;;;;;;;6.60;6.00;;;7.30;79.50;;;;;;5083140;28;20255;-43
2022/11/28 06:24:52;;;;;;;6.93;5.53;;;7.20;79.50;;;;;;5080352;28;20196;-45
2022/11/28 06:27:18;;;;;;;6.80;6.10;;;7.20;79.70;;;;;;5067861;28;20179;-44
2022/11/28 06:29:44;;;;;;;6.23;5.57;;;7.20;79.80;;;;;;5071935;28;20173;-43
2022/11/28 06:32:09;;;;;;;7.00;6.30;;;7.20;79.90;;;;;;5071903;28;20192;-43
2022/11/28 06:34:35;;;;;;;6.93;5.80;;;7.20;79.90;;;;;;5070811;28;20419;-46
2022/11/28 06:37:01;;;;;;;7.93;6.10;;;7.20;79.90;;;;;;5070283;28;20230;-43
2022/11/28 06:39:26;;;;;;;7.20;6.13;;;7.20;80.00;;;;;;5090766;28;20208;-44
2022/11/28 06:41:52;;;;;;;7.90;5.53;;;7.20;80.10;;;;;;5092952;28;20196;-44
2022/11/28 06:44:19;;;;;;;7.47;5.40;;;7.20;80.10;;;;;;5091221;28;20200;-46
2022/11/28 06:46:45;;;;;;;6.90;5.40;;;7.20;80.10;;;;;;5090804;28;20407;-48
2022/11/28 06:49:14;;;;;;;5.57;4.97;;;7.20;80.10;;;;;;5093496;28;20419;-43
2022/11/28 06:51:40;;;;;;;5.47;4.80;;;7.10;80.10;;;;;;5091320;28;20173;-46
2022/11/28 06:54:06;;;;;;;6.07;5.17;;;7.20;80.20;;;;;;5090358;28;20437;-45
2022/11/28 06:56:32;;;;;;;6.50;5.73;;;7.20;80.00;;;;;;5089136;28;20466;-46
2022/11/28 06:58:59;;;;;;;6.73;5.27;;;7.10;79.80;;;;;;5090395;28;20810;-44
2022/11/28 07:01:27;;;;;;;6.30;5.70;;;7.10;79.80;;;;;;5088456;28;20426;-43
2022/11/28 07:03:53;;;;;;;6.87;5.07;;;7.10;79.60;;;;;;5088548;28;20834;-44
2022/11/28 07:06:20;;;;;;;6.53;5.93;;;7.10;79.60;;;;;;5088584;28;20407;-45
2022/11/28 07:08:46;;;;;;;6.47;5.50;;;7.10;79.60;;;;;;5089527;28;20264;-44
2022/11/28 07:11:17;;;;;;;8.07;5.43;;;7.20;79.70;;;;;;5090873;28;20696;-48
2022/11/28 07:13:47;;;;;;;10.80;6.73;;;7.20;79.60;;;;;;5090479;28;20942;-44
2022/11/28 07:16:18;;;;;;;7.03;5.20;;;7.20;79.70;;;;;;5089163;28;20847;-45
2022/11/28 07:18:45;;;;;;;5.67;5.17;;;7.30;79.80;;;;;;5090889;28;20856;-44
2022/11/28 07:21:11;;;;;;;7.47;5.33;;;7.30;79.80;;;;;;5089942;28;20412;-46
2022/11/28 07:23:37;;;;;;;5.97;4.97;;;7.30;79.80;;;;;;5091315;28;20410;-47
2022/11/28 07:26:03;;;;;;;7.27;5.40;;;7.40;79.90;;;;;;5092935;28;20839;-44
2022/11/28 07:28:30;;;;;;;5.90;4.80;;;7.40;79.90;;;;;;5074262;28;20172;-47
2022/11/28 07:31:26;;;;;;;5.93;5.33;;;7.40;79.80;;;;;;5092990;28;20509;-46
2022/11/28 07:33:52;;;;;;;7.33;5.47;;;7.50;79.80;;;;;;5088512;28;20434;-45
2022/11/28 07:36:21;;;;;;;7.73;5.20;;;7.50;79.70;;;;;;5093135;28;20416;-45
2022/11/28 07:38:55;;;;;;;6.90;5.80;;;7.50;79.70;;;;;;5092851;28;20204;-45
2022/11/28 07:41:22;;;;;;;6.37;5.10;;;7.60;79.70;;;;;;5091239;28;20857;-44
2022/11/28 07:43:48;;;;;;;6.50;5.83;;;7.60;79.60;;;;;;5092674;28;20486;-43
2022/11/28 07:46:18;;;;;;;6.93;5.40;;;7.60;79.60;;;;;;5092693;28;20689;-43
2022/11/28 07:48:44;;;;;;;8.13;5.20;;;7.70;79.60;;;;;;5093390;28;20426;-45
2022/11/28 07:51:13;;;;;;;5.87;5.27;;;7.70;79.50;;;;;;5094357;28;20483;-44
2022/11/28 07:53:40;;;;;;;7.07;5.40;;;7.80;79.40;;;;;;5094130;28;20422;-45
2022/11/28 07:56:08;;;;;;;5.67;5.10;;;7.80;79.20;;;;;;5092344;28;20463;-45
2022/11/28 07:58:35;;;;;;;11.57;6.73;;;7.80;79.10;;;;;;5091681;28;20469;-45
2022/11/28 08:01:11;;;;;;;5.87;5.20;;;7.90;79.10;;;;;;5088553;28;20577;-44
2022/11/28 08:03:37;;;;;;;6.43;5.73;;;7.90;79.00;;;;;;5074963;28;20426;-47
2022/11/28 08:06:02;;;;;;;6.40;5.80;;;8.00;79.10;;;;;;5090714;28;20418;-45
2022/11/28 08:08:28;;;;;;;7.80;5.43;;;8.00;79.00;;;;;;5092322;28;20214;-44
2022/11/28 08:10:58;;;;;;;6.60;5.97;;;8.00;79.00;;;;;;5093507;28;20265;-45
2022/11/28 08:13:24;;;;;;;6.90;5.37;;;8.10;79.10;;;;;;5094154;28;20184;-43
2022/11/28 08:15:50;;;;;;;6.87;5.67;;;8.10;79.10;;;;;;5095814;28;20429;-43
2022/11/28 08:18:16;;;;;;;6.60;5.37;;;8.10;79.10;;;;;;5095862;28;20445;-45
2022/11/28 08:20:42;;;;;;;7.50;6.57;;;8.20;79.20;;;;;;5096434;28;20430;-48
2022/11/28 08:23:07;;;;;;;7.33;5.60;;;8.20;79.20;;;;;;5094722;28;20708;-47
2022/11/28 08:25:33;;;;;;;7.93;5.80;;;8.30;79.30;;;;;;5093706;28;20496;-44
2022/11/28 08:27:59;;;;;;;7.60;5.80;;;8.30;79.10;;;;;;5093796;28;20172;-46
2022/11/28 08:30:25;;;;;;;6.10;5.50;;;8.30;78.90;;;;;;5093523;28;20414;-47
2022/11/28 08:32:50;;;;;;;5.53;3.00;;;8.40;79.90;;;;;;5092994;28;20244;-49
2022/11/28 08:35:16;;;;;;;4.20;3.40;;;9.40;99.90;;;;;;5094151;28;20580;-47
2022/11/28 08:37:42;;;;;;;5.80;3.63;;;10.30;99.90;;;;;;5093110;28;20215;-48
2022/11/28 08:40:08;;;;;;;4.47;3.40;;;11.10;99.90;;;;;;5094643;28;20495;-46
2022/11/28 08:42:34;;;;;;;6.80;3.83;;;11.80;99.90;;;;;;5092647;28;20169;-46
2022/11/28 08:44:59;;;;;;;12.63;3.83;;;12.50;99.90;;;;;;5090904;28;20427;-50
2022/11/28 08:47:25;;;;;;;5.37;3.23;;;13.20;99.90;;;;;;5091673;28;20180;-46
2022/11/28 08:49:51;;;;;;;4.50;2.80;;;13.60;99.30;;;;;;5093367;28;20585;-46
2022/11/28 08:52:16;;;;;;;4.37;3.67;;;14.00;97.70;;;;;;5093483;28;20183;-46
2022/11/28 08:54:42;;;;;;;7.93;3.70;;;14.30;96.40;;;;;;5093909;28;20257;-49
2022/11/28 08:57:08;;;;;;;5.40;3.87;;;14.50;95.60;;;;;;5091514;28;20228;-46
2022/11/28 08:59:34;;;;;;;3.90;3.57;;;14.70;94.90;;;;;;5093033;28;20880;-47
2022/11/28 09:02:00;;;;;;;4.87;4.00;;;14.80;94.30;;;;;;5094525;28;20259;-45
2022/11/28 09:04:26;;;;;;;7.40;4.10;;;15.00;93.70;;;;;;5093618;28;20188;-47
2022/11/28 09:06:51;;;;;;;5.20;3.73;;;15.10;93.20;;;;;;5094700;28;20161;-48
2022/11/28 09:09:17;;;;;;;5.33;3.63;;;15.20;92.60;;;;;;5093104;28;20176;-48
2022/11/28 09:11:43;;;;;;;5.00;3.90;;;15.30;92.20;;;;;;5095111;28;20674;-43
2022/11/28 09:14:09;;;;;;;5.57;3.73;;;15.40;91.60;;;;;;5091088;28;20495;-43
2022/11/28 09:16:37;;;;;;;5.47;4.50;;;15.40;90.90;;;;;;5093825;28;20512;-44
2022/11/28 09:19:03;;;;;;;4.53;4.13;;;15.10;89.90;;;;;;5092852;28;20492;-43
2022/11/28 09:21:28;;;;;;;6.40;5.17;;;14.70;86.90;;;;;;5091528;28;20411;-44
2022/11/28 09:23:55;;;;;;;6.00;5.43;;;14.30;83.90;;;;;;5092903;28;20187;-42
2022/11/28 09:26:23;;;;;;;6.20;5.57;;;13.90;81.30;;;;;;5092108;28;20172;-44
2022/11/28 09:28:49;;;;;;;6.73;5.57;;;13.50;79.70;;;;;;5095254;28;20433;-47
2022/11/28 09:31:16;;;;;;;6.20;5.60;;;13.20;78.50;;;;;;5094881;28;20720;-47
2022/11/28 09:33:42;;;;;;;6.40;5.80;;;12.90;77.70;;;;;;5094511;28;20430;-45
2022/11/28 09:36:16;;;;;;;6.43;5.73;;;12.70;77.10;;;;;;5095089;28;20742;-45
2022/11/28 09:38:42;;;;;;;6.90;4.40;;;12.50;76.30;;;;;;5094968;28;20457;-44
2022/11/28 09:41:27;;;;;;;6.17;5.07;;;12.40;75.30;;;;;;5095438;28;20479;-44
2022/11/28 09:43:54;;;;;;;10.03;5.30;;;12.20;74.30;;;;;;5095541;28;20222;-44
2022/11/28 09:46:25;;;;;;;6.20;5.13;;;12.10;73.40;;;;;;5091873;28;20462;-43
2022/11/28 09:48:53;;;;;;;5.23;4.33;;;12.00;72.90;;;;;;5092917;28;20506;-46
2022/11/28 09:51:45;;;;;;;5.70;4.50;;;11.90;72.10;;;;;;5076331;28;20449;-45
2022/11/28 09:54:18;;;;;;;5.97;4.20;;;11.90;71.70;;;;;;5089932;28;21045;-44
2022/11/28 09:56:47;;;;;;;8.27;6.00;;;11.90;71.10;;;;;;5091440;28;20480;-44
2022/11/28 09:59:26;;;;;;;6.97;4.93;;;11.90;70.20;;;;;;5088911;28;20551;-44
2022/11/28 10:01:57;;;;;;;8.13;5.20;;;11.90;69.50;;;;;;5092324;28;20414;-45
2022/11/28 10:04:38;;;;;;;5.83;4.53;;;11.80;69.30;;;;;;5094902;28;20408;-42
2022/11/28 10:07:38;;;;;;;7.20;5.13;;;11.80;69.50;;;;;;5097541;28;20560;-47
2022/11/28 10:10:39;;;;;;;6.90;5.43;;;11.90;69.50;;;;;;5098511;28;20430;-46
2022/11/28 10:13:17;;;;;;;7.60;6.30;;;11.90;69.40;;;;;;5100016;28;20513;-44
2022/11/28 10:15:51;;;;;;;10.20;9.13;;;11.90;69.40;;;;;;5098661;28;20418;-44
2022/11/28 10:18:48;;;;;;;12.87;9.20;;;11.90;69.40;;;;;;5099687;28;20445;-45
2022/11/28 10:21:32;;;;;;;11.70;9.50;;;12.00;69.60;;;;;;5095533;28;20450;-44
2022/11/28 10:24:11;;;;;;;14.40;10.37;;;12.00;69.50;;;;;;5096215;28;20441;-44
2022/11/28 10:26:45;;;;;;;12.87;9.23;;;12.10;69.60;;;;;;5096330;28;20425;-45
2022/11/28 10:29:28;;;;;;;16.60;11.53;;;12.20;69.50;;;;;;5097677;28;20798;-46
2022/11/28 10:31:57;;;;;;;15.73;12.00;;;12.30;69.40;;;;;;5096350;28;20417;-45
2022/11/28 10:34:35;;;;;;;15.17;12.17;;;12.30;69.20;;;;;;5097629;28;20418;-43
2022/11/28 10:37:01;;;;;;;13.57;10.90;;;12.40;69.00;;;;;;5099683;28;20845;-42
2022/11/28 10:39:27;;;;;;;13.67;10.97;;;12.50;69.00;;;;;;5098975;28;20462;-43
2022/11/28 10:42:16;;;;;;;12.47;9.20;;;12.50;68.80;;;;;;5097518;28;20230;-43
2022/11/28 10:44:59;;;;;;;12.60;9.10;;;12.60;68.70;;;;;;5097190;28;20456;-42
2022/11/28 10:47:25;;;;;;;10.90;8.40;;;12.60;68.40;;;;;;5095470;28;20457;-43
2022/11/28 10:49:59;;;;;;;11.53;7.97;;;12.60;68.30;;;;;;5096869;28;20473;-42
2022/11/28 10:52:31;;;;;;;8.53;6.87;;;12.60;68.00;;;;;;5095674;28;20363;-43
2022/11/28 10:55:17;;;;;;;7.00;6.30;;;12.60;67.80;;;;;;5095997;28;20680;-45
2022/11/28 10:58:02;;;;;;;7.33;6.10;;;12.50;67.70;;;;;;5095265;28;20526;-44
2022/11/28 11:00:28;;;;;;;5.87;5.30;;;12.50;67.70;;;;;;5096869;28;20494;-42
2022/11/28 11:02:55;;;;;;;6.07;5.47;;;12.50;67.60;;;;;;5095436;28;20465;-46
2022/11/28 11:05:26;;;;;;;7.30;6.00;;;12.40;67.50;;;;;;5094950;28;20839;-41
2022/11/28 11:07:56;;;;;;;6.83;5.80;;;12.40;67.80;;;;;;5096995;28;20475;-42
2022/11/28 11:10:26;;;;;;;10.03;6.33;;;12.40;67.80;;;;;;5097327;28;20406;-45
2022/11/28 11:12:52;;;;;;;5.27;4.67;;;12.40;67.80;;;;;;5098208;28;20708;-43
2022/11/28 11:15:29;;;;;;;7.13;5.07;;;12.40;67.90;;;;;;5095785;28;20830;-46
2022/11/28 11:17:56;;;;;;;7.37;4.87;;;12.40;68.10;;;;;;5096516;28;20429;-43
2022/11/28 11:20:22;;;;;;;6.20;5.40;;;12.40;68.10;;;;;;5094220;28;20887;-44
2022/11/28 11:22:59;;;;;;;10.20;6.20;;;12.40;68.20;;;;;;5097265;28;20454;-43
2022/11/28 11:25:27;;;;;;;6.30;5.70;;;12.40;68.30;;;;;;5096824;28;20168;-44
2022/11/28 11:27:59;;;;;;;5.10;4.60;;;12.40;68.40;;;;;;5095225;28;20880;-43
2022/11/28 11:30:26;;;;;;;6.70;5.40;;;12.40;68.40;;;;;;5092285;28;20824;-43
2022/11/28 11:32:51;;;;;;;7.33;5.87;;;12.50;68.40;;;;;;5093144;28;20425;-43
2022/11/28 11:35:25;;;;;;;8.50;6.20;;;12.50;68.10;;;;;;5094094;28;20696;-45
2022/11/28 11:37:51;;;;;;;6.60;5.73;;;12.50;67.90;;;;;;5093524;28;20172;-43
2022/11/28 11:40:28;;;;;;;7.03;5.50;;;12.50;67.70;;;;;;5093452;28;20469;-45
2022/11/28 11:42:57;;;;;;;7.23;5.80;;;12.50;67.60;;;;;;5095909;28;20414;-45
2022/11/28 11:45:30;;;;;;;7.43;6.73;;;12.40;67.80;;;;;;5095481;28;20808;-45
2022/11/28 11:47:56;;;;;;;7.03;6.33;;;12.40;68.00;;;;;;5097221;28;20483;-44
2022/11/28 11:50:24;;;;;;;9.07;6.57;;;12.40;68.30;;;;;;5093250;28;20454;-45
2022/11/28 11:53:09;;;;;;;6.30;5.43;;;12.30;68.40;;;;;;5094521;28;20733;-44
2022/11/28 11:55:53;;;;;;;6.90;6.07;;;12.30;68.60;;;;;;5095443;28;20422;-43
2022/11/28 11:58:25;;;;;;;6.60;5.57;;;12.30;68.70;;;;;;5092657;28;20438;-44
2022/11/28 12:00:55;;;;;;;7.50;6.47;;;12.30;68.90;;;;;;5092212;28;20882;-43
2022/11/28 12:03:38;;;;;;;7.67;6.93;;;12.30;69.10;;;;;;5093700;28;20438;-42
2022/11/28 12:06:19;;;;;;;6.43;5.70;;;12.30;69.30;;;;;;5096165;28;20791;-43
2022/11/28 12:09:22;;;;;;;7.40;6.70;;;12.40;69.60;;;;;;5091928;28;21074;-47
2022/11/28 12:11:56;;;;;;;6.73;6.03;;;12.50;69.80;;;;;;5083285;28;20435;-43
2022/11/28 12:14:33;;;;;;;6.90;6.30;;;12.60;70.00;;;;;;5089045;28;20743;-44
2022/11/28 12:17:24;;;;;;;6.60;5.90;;;12.70;70.10;;;;;;5092887;28;20414;-42
2022/11/28 12:20:18;;;;;;;6.97;6.10;;;12.80;70.30;;;;;;5089921;28;20454;-42
2022/11/28 12:23:15;;;;;;;7.50;6.13;;;12.80;70.10;;;;;;5089976;28;20465;-42
2022/11/28 12:26:07;;;;;;;5.87;5.27;;;12.90;70.20;;;;;;5088789;28;20418;-44
2022/11/28 12:29:02;;;;;;;5.43;4.73;;;12.80;70.30;;;;;;5090084;28;20418;-46
2022/11/28 12:31:40;;;;;;;7.23;5.50;;;12.80;70.50;;;;;;5085768;28;20434;-44
2022/11/28 12:34:14;;;;;;;6.87;5.30;;;12.70;70.50;;;;;;5087062;28;21065;-43
2022/11/28 12:37:09;;;;;;;6.10;5.50;;;12.70;70.90;;;;;;5088237;28;20418;-45
2022/11/28 12:39:59;;;;;;;6.40;5.47;;;12.70;71.20;;;;;;5088691;28;20484;-42
2022/11/28 12:42:30;;;;;;;5.77;4.73;;;12.60;71.30;;;;;;5090424;28;20825;-44
2022/11/28 12:44:55;;;;;;;6.07;4.80;;;12.60;71.50;;;;;;5088007;28;20421;-44
2022/11/28 12:47:45;;;;;;;4.93;4.53;;;12.60;71.70;;;;;;5084958;28;20833;-44
2022/11/28 12:50:16;;;;;;;5.73;3.93;;;12.60;71.90;;;;;;5091341;28;20446;-45
2022/11/28 12:52:47;;;;;;;5.03;4.53;;;12.60;72.10;;;;;;5082073;28;20446;-43
2022/11/28 12:55:28;;;;;;;7.63;4.73;;;12.60;72.30;;;;;;5086738;28;20546;-45
2022/11/28 12:58:06;;;;;;;5.57;4.33;;;12.70;72.50;;;;;;5089405;28;20485;-44
2022/11/28 13:00:32;;;;;;;5.00;4.13;;;12.80;72.60;;;;;;5091909;28;20465;-44
2022/11/28 13:03:19;;;;;;;4.40;3.97;;;12.90;72.80;;;;;;5087932;28;20607;-43
2022/11/28 13:06:06;;;;;;;4.30;3.87;;;12.90;72.60;;;;;;5089642;28;20662;-43
2022/11/28 13:08:41;;;;;;;5.20;4.27;;;13.00;72.60;;;;;;5090354;28;20421;-43
2022/11/28 13:11:32;;;;;;;6.90;4.60;;;13.00;72.60;;;;;;5092138;28;20421;-44
2022/11/28 13:14:33;;;;;;;4.60;4.20;;;13.00;72.80;;;;;;5089899;28;20625;-43